Terminal Aerodrome Forecast
Issued by NWS Sioux Falls, SD

Home | Current Version | Previous Version | Graphics & Text | Print | Product List | Glossary Off
Versions: 1 2 3 4 5 6 7 8 9 10 11 12 13 14

081
FTUS43 KFSD 281743
TAFHON
TAF
KHON 281743Z 2818/2918 02007KT P6SM SKC
     FM290400 09004KT P6SM SKC
      TEMPO 2911/2913 4SM BR
     FM291400 15004KT P6SM FEW200=

USA.gov is the U.S. government's official web portal to all federal, state and local government web resources and services.